Campbell River Airport
CYBL : rendu visible

Aérodrome :











RETROUVEZ-NOUS SUR...

 
LOGIN :

S'inscrire | Disclaimer

   EN    FR    IT 

 









Légende :    VFR   VFR Marginal   IFR   IFR Intensif   IFR Très Intensif
Visi : 
Plafond : 
>= 8 km
>= 3000ft
5 à 8 km
1000 à 3000 ft
1500m à 5 km
500 à 1000 ft
800 à 1500m
200 à 500 ft
< 800m
< 200 ft
Symboles :   Orages  Brouillard  Fortes neiges  Fortes précipitations  Vent > 20 kt






- Altitude de l'aérodrome : 346 ft
- Code IATA : YBL


CYBL - Campbell River

DERNIER METAR :
  • 210000Z 00000KT 30SM FEW160 FEW250 05/03 A3014 RMK AC1CI1 SLP211

METARs EXPIRÉS :
  • 202300Z VRB02KT 30SM SCT250 09/02 A3015 RMK CI3 SLP213
  • 202200Z VRB02KT 30SM SCT250 09/02 A3016 RMK CI3 SLP219

TAF TAF CYBL
Valide du 20 à 19h jusqu'au 21 à 05h UTC


201838Z 2019/2105 VRB03KT P6SM SCT200 RMK NXT FCST BY 210100Z



MET'MAP, la Météo Aéronautique d'un coup d'oeil ! - Copyright ORBIFLY Décembre 2007 - Disclaimer

ORBIFLY MET'MAP TEAM :

Programmation & Développement : Alexandra Zaïnal
Conception & Développement : Baudouin d'Aumeries
Co-Programmation & Développement : Marc-Olivier Méhu
Soutien technique & logistique : Manuel Goepfert

Contact : metmap@orbifly.com




SOURCES & CREDITS :

   NOAA       Earth
Advisory